To NAV CANADA Home Page Login to a new session Search on AWWS site Feedback and Comments Disclaimer Vers la page française équivalente Tips FAQ What's new on the site To the Forecasts and Observations / NOTAM section To "File a Flight Plan" website Publications and other links Update of the User's profile FIC Telephone Numbers My Weather Data Folder Route Weather Data Regional Weather Data Local Weather Data To the Forecasts and Observations / NOTAM section
Request Generated 03/23/2017 at 00:08:00 UTC . Weather information available at that time is displayed.

METAR/TAF

WHITEHORSE/ERIK NIELSEN INTL/YT    

METAR CYXY 230000Z 35005KT 320V020 8SM -SN FEW013 SCT040 BKN200
M02/M05 A2950 RMK SC2SC2CI2 VIS NW AND SE 3 SLP033=
METAR CYXY 222300Z 34006KT 8SM -SN SCT013 BKN040 OVC200 M02/M06 A2950
RMK SN2SC1SC2CS3 SLP034=
METAR CYXY 222200Z 36005KT 8SM -SN SCT013 BKN060 OVC200 M03/M06 A2952
RMK SC3SC3CS2 SLP039=

TAF CYXY 222341Z 2300/2312 34005KT P6SM SCT015 BKN040 OVC200 TEMPO
2300/2305 3SM -SN BKN015 OVC040
FM230500 VRB03KT P6SM SCT030 BKN070 OVC220 TEMPO 2305/2312 5SM
-SN FEW015 BKN030
RMK NXT FCST BY 230600Z=
Your time UTC time
Weather data provided by Environment Canada and NAV CANADA